ADDS METAR Data INFO
IDs: Format: Raw Decoded Include TAF

Data at: 0144 UTC 26 Feb 2018

KDCU 260053Z AUTO 13005KT 10SM -RA FEW075 OVC090 12/11 A3013 RMK AO2 RAB17 SLP203 P0000 T01170106
KDCU 252353Z AUTO 32003KT 10SM OVC035 12/10 A3014 RMK AO2 SLP203 T01220100 10139 20122 53001
KDCU 252253Z AUTO 32005KT 10SM FEW036 SCT120 12/11 A3013 RMK AO2 SLP201 T01220106
KDCU 252153Z AUTO 33005KT 10SM FEW015 SCT028 SCT110 13/10 A3011 RMK AO2 SLP195 T01280100
KDCU 252116Z AUTO 29006KT 10SM SCT025 BKN032 OVC110 13/10 A3013 RMK AO2 T01280100
KDCU 252053Z AUTO 28008KT 10SM SCT018 BKN024 OVC029 13/11 A3013 RMK AO2 PRESRR SLP202 T01280106 53013
KDCU 252005Z AUTO 28006KT 10SM BKN015 BKN024 OVC032 13/11 A3009 RMK AO2 T01330106
KDCU 251953Z AUTO 31003KT 10SM FEW015 SCT024 OVC032 13/10 A3008 RMK AO2 SLP184 T01330100
KDCU 251951Z AUTO 30003KT 10SM SCT015 BKN024 OVC032 13/11 A3008 RMK AO2
KDCU 251926Z AUTO 27004KT 10SM FEW013 OVC030 13/11 A3009 RMK AO2 T01330111
KDCU 251853Z AUTO 26005KT 10SM BKN026 OVC031 13/11 A3010 RMK AO2 SLP187 T01330111
KDCU 251845Z AUTO VRB03KT 10SM FEW014 FEW019 OVC029 13/11 A3007 RMK AO2 T01330111
KDCU 251838Z AUTO 17005KT 10SM FEW014 SCT021 OVC031 13/12 A3006 RMK AO2 T01330117
KDCU 251811Z AUTO 00000KT 10SM SCT011 BKN019 OVC033 13/11 A3008 RMK AO2 T01330111
KDCU 251753Z AUTO 24003KT 10SM BKN011 BKN017 OVC030 13/11 A3009 RMK AO2 SLP184 60000 T01330111 10133 20117 56019
KDCU 251653Z AUTO 17007KT 10SM FEW010 SCT014 BKN033 13/12 A3011 RMK AO2 PRESFR SLP192 T01330117
KDCU 251648Z AUTO 22006KT 10SM FEW010 SCT014 BKN031 13/12 A3014 RMK AO2
KDCU 251632Z AUTO 24009KT 10SM SCT010 BKN014 BKN110 13/12 A3015 RMK AO2 PRESRR T01280117
KDCU 251553Z AUTO VRB06KT 10SM FEW016 SCT090 BKN110 13/12 A3012 RMK AO2 SLP195 T01280117
KDCU 251526Z AUTO 19006KT 10SM SCT016 BKN029 OVC110 13/12 A3013 RMK AO2 T01280117
KDCU 251519Z AUTO 17004KT 10SM BKN014 BKN029 OVC110 13/12 A3012 RMK AO2 T01280117
KDCU 251453Z AUTO VRB04KT 10SM SCT015 BKN100 BKN110 12/12 A3011 RMK AO2 SLP194 60000 T01220117 53013
KDCU 251433Z AUTO 18005KT 10SM SCT015 SCT100 BKN120 12/12 A3009 RMK AO2 T01220117
KDCU 251422Z AUTO 19005KT 10SM SCT013 BKN018 BKN110 12/12 A3010 RMK AO2 CIG 016V026 T01220117
KDCU 251409Z AUTO VRB06KT 10SM SCT014 BKN120 12/12 A3012 RMK AO2 T01220117
KDCU 251353Z AUTO 19005KT 10SM BKN013 BKN020 12/12 A3009 RMK AO2 SLP187 T01220117
KDCU 251302Z AUTO VRB04KT 10SM BKN012 BKN021 BKN110 12/12 A3007 RMK AO2 T01220117
KDCU 251253Z AUTO 22005KT 10SM SCT012 BKN120 12/12 A3008 RMK AO2 RAE33 SLP184 P0000 T01170117
KDCU 251234Z AUTO 19003KT 10SM BKN012 OVC110 12/12 A3007 RMK AO2 RAE33 P0000 T01220117
KDCU 251201Z AUTO 19004KT 10SM -RA FEW009 BKN018 OVC025 12/12 A3006 RMK AO2 P0000 T01170117
KDCU 251153Z AUTO 22004KT 10SM -RA SCT011 BKN022 OVC100 12/12 A3008 RMK AO2 SLP181 P0002 60084 70084 T01170117 10211 20117 53024
KDCU 251143Z AUTO 19006KT 10SM -RA FEW010 BKN025 OVC100 12/12 A3007 RMK AO2 P0001 T01170117
KDCU 251053Z AUTO 17004KT 10SM -RA OVC110 12/11 A3003 RMK AO2 SLP166 P0002 T01170111
KDCU 250953Z AUTO 22005KT 7SM -RA OVC095 12/11 A3002 RMK AO2 SLP160 P0008 T01170111
KDCU 250909Z AUTO 23005KT 5SM RA BR FEW008 FEW048 OVC075 12/11 A3000 RMK AO2 P0002 T01170111
KDCU 250853Z AUTO 25005KT 5SM RA BR SCT010 BKN049 OVC070 12/12 A3000 RMK AO2 SLP156 P0013 60072 T01220117 51027
KDCU 250839Z AUTO 28006KT 4SM RA BR BKN011 BKN025 OVC070 13/12 A3002 RMK AO2 P0010 T01280122
KDCU 250834Z AUTO 29005KT 7SM -RA SCT011 BKN040 OVC075 13/12 A3001 RMK AO2 P0008 T01280122
KDCU 250816Z AUTO 32007KT 7SM RA FEW010 BKN019 OVC075 13/12 A3000 RMK AO2 P0006 T01330122
KDCU 250801Z AUTO 32016KT 4SM +RA BR OVC010 13/13 A2999 RMK AO2 P0004 T01330128
KDCU 250753Z AUTO 31014KT 2SM +RA BR BKN010 OVC020 14/14 A3000 RMK AO2 PK WND 31036/0730 WSHFT 0718 RAB15 SLP156 P0059 T01390139
KDCU 250751Z AUTO 31014G25KT 1 1/2SM +RA BR BKN010 OVC020 14/14 A3000 RMK AO2 PK WND 31036/0730 WSHFT 0718 RAB15 P0059
KDCU 250743Z AUTO 29019G25KT 3/4SM +RA BR BKN010 BKN022 OVC038 14/14 A2999 RMK AO2 PK WND 31036/0730 WSHFT 0718 RAB15 P0052 T01440139
KDCU 250732Z AUTO 30025G36KT 1 3/4SM RA BR SCT010 BKN022 OVC041 16/15 A2996 RMK AO2 PK WND 31036/0730 WSHFT 0718 RAB15 PRESRR P0016 T01610150
KDCU 250730Z AUTO 31025G36KT 4SM -RA BR FEW007 BKN022 OVC045 17/15 A2996 RMK AO2 PK WND 31036/0730 WSHFT 0714 RAB15 PRESRR P0005 T01670150
KDCU 250728Z AUTO 30021G29KT 9SM -RA SCT021 BKN031 OVC050 19/16 A2996 RMK AO2 PK WND 30029/0726 WSHFT 0714 RAB15 PRESRR P0000 T01890161
KDCU 250653Z AUTO 19018KT 10SM SCT029 BKN041 BKN050 21/17 A2992 RMK AO2 PK WND 19027/0627 LTG DSNT W AND NW SLP126 T02060172
KDCU 250553Z AUTO 18019G29KT 10SM FEW026 FEW034 BKN110 21/17 A2991 RMK AO2 PK WND 19029/0543 SLP122 T02060172 10211 20189 402500161 58007
KDCU 250453Z AUTO 18017G27KT 10SM FEW070 OVC110 21/17 A2992 RMK AO2 PK WND 18030/0414 SLP127 T02060172
KDCU 250353Z AUTO 19018G26KT 10SM SCT080 BKN120 21/17 A2993 RMK AO2 PK WND 19029/0313 SLP130 T02110167
KDCU 250253Z AUTO 19017KT 10SM CLR 21/17 A2993 RMK AO2 SLP130 T02060172 55007
KDCU 250153Z AUTO 17016KT 10SM CLR 20/17 A2992 RMK AO2 SLP127 T02000172
KDCU 250053Z AUTO 15013KT 10SM FEW050 FEW070 19/17 A2994 RMK AO2 SLP132 T01940167
KDCU 242353Z AUTO 17011KT 10SM FEW046 SCT060 SCT120 20/17 A2995 RMK AO2 SLP137 T02000167 10250 20200 55003
KDCU 242253Z AUTO 17016KT 10SM OVC110 21/17 A2995 RMK AO2 SLP136 T02110167
KDCU 242153Z AUTO 17014KT 10SM BKN100 BKN120 22/17 A2995 RMK AO2 PK WND 17026/2057 SLP136 T02220167
KDCU 242053Z AUTO 17017KT 10SM FEW032 SCT042 BKN100 23/17 A2996 RMK AO2 SLP140 T02280172 56032
KDCU 241953Z AUTO 19012G21KT 10SM BKN031 23/18 A2998 RMK AO2 SLP147 T02330178
KDCU 241853Z AUTO 18017G22KT 10SM SCT030 BKN037 24/18 A3001 RMK AO2 SLP159 T02390178
KDCU 241753Z AUTO 20016G36KT 180V320 10SM FEW029 SCT046 BKN085 23/18 A3006 RMK AO2 PK WND 32036/1753 SLP173 60000 T02280183 10233 20194 58023
KDCU 241702Z AUTO 19014KT 10SM SCT023 BKN036 23/18 A3009 RMK AO2 T02280183
KDCU 241653Z AUTO 19012KT 10SM SCT023 BKN027 BKN039 22/18 A3010 RMK AO2 SLP186 T02170183
KDCU 241553Z AUTO 21011KT 10SM SCT020 SCT025 BKN033 21/18 A3012 RMK AO2 SLP193 T02110178
KDCU 241518Z AUTO 21012KT 10SM SCT016 21/18 A3012 RMK AO2 T02110183
KDCU 241453Z AUTO 21009KT 10SM OVC015 20/18 A3012 RMK AO2 RAB1359E08B11E51 SLP196 P0000 60000 T02000183 53009
KDCU 241408Z AUTO 19013KT 10SM OVC013 19/18 A3011 RMK AO2 RAB1359E08 P0000 T01940183
KDCU 241353Z AUTO 19012KT 9SM OVC015 19/18 A3011 RMK AO2 SLP191 T01940183